sensor_id;sensor_type;location;lat;lon;timestamp;temperature;humidity
75782;DHT22;64400;44.762;37.698;2023-04-25T00:01:22;11.39;101.44
75782;DHT22;64400;44.762;37.698;2023-04-25T00:04:10;11.20;99.71
75782;DHT22;64400;44.762;37.698;2023-04-25T00:07:00;11.12;100.18
75782;DHT22;64400;44.762;37.698;2023-04-25T00:09:32;11.08;100.01
75782;DHT22;64400;44.762;37.698;2023-04-25T00:12:21;11.17;100.59
75782;DHT22;64400;44.762;37.698;2023-04-25T00:15:04;11.05;100.70
75782;DHT22;64400;44.762;37.698;2023-04-25T00:17:47;11.05;101.28
75782;DHT22;64400;44.762;37.698;2023-04-25T00:20:13;10.96;101.43
75782;DHT22;64400;44.762;37.698;2023-04-25T00:22:40;10.95;101.49
75782;DHT22;64400;44.762;37.698;2023-04-25T00:25:28;11.00;102.27
75782;DHT22;64400;44.762;37.698;2023-04-25T00:27:55;10.88;101.80
75782;DHT22;64400;44.762;37.698;2023-04-25T00:30:22;10.81;102.41
75782;DHT22;64400;44.762;37.698;2023-04-25T00:32:48;10.75;103.25
75782;DHT22;64400;44.762;37.698;2023-04-25T00:35:15;10.70;103.58
75782;DHT22;64400;44.762;37.698;2023-04-25T00:37:41;10.67;104.47
75782;DHT22;64400;44.762;37.698;2023-04-25T00:40:29;10.60;104.89
75782;DHT22;64400;44.762;37.698;2023-04-25T00:43:18;10.53;105.06
75782;DHT22;64400;44.762;37.698;2023-04-25T00:46:08;10.52;105.24
75782;DHT22;64400;44.762;37.698;2023-04-25T00:48:37;10.48;105.29
75782;DHT22;64400;44.762;37.698;2023-04-25T00:51:25;10.48;105.45
75782;DHT22;64400;44.762;37.698;2023-04-25T00:54:15;10.48;105.68
75782;DHT22;64400;44.762;37.698;2023-04-25T00:56:46;10.45;105.59
75782;DHT22;64400;44.762;37.698;2023-04-25T00:59:36;10.43;105.89
75782;DHT22;64400;44.762;37.698;2023-04-25T01:02:03;10.42;105.74
75782;DHT22;64400;44.762;37.698;2023-04-25T01:04:30;10.41;105.80
75782;DHT22;64400;44.762;37.698;2023-04-25T01:06:56;10.42;105.66
75782;DHT22;64400;44.762;37.698;2023-04-25T01:09:24;10.40;105.27
75782;DHT22;64400;44.762;37.698;2023-04-25T01:12:07;10.40;105.19
75782;DHT22;64400;44.762;37.698;2023-04-25T01:14:55;10.37;104.96
75782;DHT22;64400;44.762;37.698;2023-04-25T01:17:44;10.35;104.66
75782;DHT22;64400;44.762;37.698;2023-04-25T01:20:26;10.27;103.34
75782;DHT22;64400;44.762;37.698;2023-04-25T01:23:09;10.24;103.47
75782;DHT22;64400;44.762;37.698;2023-04-25T01:25:52;10.21;103.41
75782;DHT22;64400;44.762;37.698;2023-04-25T01:28:34;10.14;104.01
75782;DHT22;64400;44.762;37.698;2023-04-25T01:31:16;10.09;104.08
75782;DHT22;64400;44.762;37.698;2023-04-25T01:34:00;10.10;103.70
75782;DHT22;64400;44.762;37.698;2023-04-25T01:36:42;10.07;103.59
75782;DHT22;64400;44.762;37.698;2023-04-25T01:39:23;10.03;103.34
75782;DHT22;64400;44.762;37.698;2023-04-25T01:42:14;9.99;103.64
75782;DHT22;64400;44.762;37.698;2023-04-25T01:44:45;9.96;103.99
75782;DHT22;64400;44.762;37.698;2023-04-25T01:47:34;9.93;104.40
75782;DHT22;64400;44.762;37.698;2023-04-25T01:50:23;9.91;104.89
75782;DHT22;64400;44.762;37.698;2023-04-25T01:53:05;9.91;105.37
75782;DHT22;64400;44.762;37.698;2023-04-25T01:55:48;9.94;105.71
75782;DHT22;64400;44.762;37.698;2023-04-25T01:58:33;9.96;105.94
75782;DHT22;64400;44.762;37.698;2023-04-25T02:01:34;9.97;106.00
75782;DHT22;64400;44.762;37.698;2023-04-25T02:04:22;9.99;106.27
75782;DHT22;64400;44.762;37.698;2023-04-25T02:07:11;10.06;106.75
75782;DHT22;64400;44.762;37.698;2023-04-25T02:09:51;10.10;106.72
75782;DHT22;64400;44.762;37.698;2023-04-25T02:12:27;10.15;106.76
75782;DHT22;64400;44.762;37.698;2023-04-25T02:15:20;10.20;106.81
75782;DHT22;64400;44.762;37.698;2023-04-25T02:18:17;10.22;106.87
75782;DHT22;64400;44.762;37.698;2023-04-25T02:21:06;10.26;106.98
75782;DHT22;64400;44.762;37.698;2023-04-25T02:23:48;10.30;107.14
75782;DHT22;64400;44.762;37.698;2023-04-25T02:26:34;10.35;107.14
75782;DHT22;64400;44.762;37.698;2023-04-25T02:29:16;10.37;106.81
75782;DHT22;64400;44.762;37.698;2023-04-25T02:31:58;10.41;106.20
75782;DHT22;64400;44.762;37.698;2023-04-25T02:34:40;10.42;106.24
75782;DHT22;64400;44.762;37.698;2023-04-25T02:37:22;10.44;105.98
75782;DHT22;64400;44.762;37.698;2023-04-25T02:39:51;10.46;106.00
75782;DHT22;64400;44.762;37.698;2023-04-25T02:42:39;10.50;106.34
75782;DHT22;64400;44.762;37.698;2023-04-25T02:45:29;10.51;106.25
75782;DHT22;64400;44.762;37.698;2023-04-25T02:48:06;10.55;106.34
75782;DHT22;64400;44.762;37.698;2023-04-25T02:50:55;10.58;106.43
75782;DHT22;64400;44.762;37.698;2023-04-25T02:53:45;10.58;106.26
75782;DHT22;64400;44.762;37.698;2023-04-25T02:56:15;10.60;106.43
75782;DHT22;64400;44.762;37.698;2023-04-25T02:59:09;10.63;106.43
75782;DHT22;64400;44.762;37.698;2023-04-25T03:01:58;10.59;106.18
75782;DHT22;64400;44.762;37.698;2023-04-25T03:04:24;10.55;105.50
75782;DHT22;64400;44.762;37.698;2023-04-25T03:06:51;10.55;105.10
75782;DHT22;64400;44.762;37.698;2023-04-25T03:09:41;10.59;105.60
75782;DHT22;64400;44.762;37.698;2023-04-25T03:12:32;10.57;104.78
75782;DHT22;64400;44.762;37.698;2023-04-25T03:15:14;10.56;104.73
75782;DHT22;64400;44.762;37.698;2023-04-25T03:17:58;10.57;104.74
75782;DHT22;64400;44.762;37.698;2023-04-25T03:20:40;10.56;104.90
75782;DHT22;64400;44.762;37.698;2023-04-25T03:23:31;10.49;104.73
75782;DHT22;64400;44.762;37.698;2023-04-25T03:26:00;10.49;104.37
75782;DHT22;64400;44.762;37.698;2023-04-25T03:28:49;10.48;104.08
75782;DHT22;64400;44.762;37.698;2023-04-25T03:31:39;10.48;104.34
75782;DHT22;64400;44.762;37.698;2023-04-25T03:34:09;10.52;103.90
75782;DHT22;64400;44.762;37.698;2023-04-25T03:36:57;10.56;104.12
75782;DHT22;64400;44.762;37.698;2023-04-25T03:39:29;10.55;103.34
75782;DHT22;64400;44.762;37.698;2023-04-25T03:42:18;10.60;102.68
75782;DHT22;64400;44.762;37.698;2023-04-25T03:45:07;10.64;103.70
75782;DHT22;64400;44.762;37.698;2023-04-25T03:47:49;10.64;103.83
75782;DHT22;64400;44.762;37.698;2023-04-25T03:50:32;10.62;103.50
75782;DHT22;64400;44.762;37.698;2023-04-25T03:53:14;10.62;104.60
75782;DHT22;64400;44.762;37.698;2023-04-25T03:56:29;10.66;104.92
75782;DHT22;64400;44.762;37.698;2023-04-25T03:59:03;10.69;104.79
75782;DHT22;64400;44.762;37.698;2023-04-25T04:01:31;10.68;103.73
75782;DHT22;64400;44.762;37.698;2023-04-25T04:03:57;10.68;102.70
75782;DHT22;64400;44.762;37.698;2023-04-25T04:06:34;10.69;102.81
75782;DHT22;64400;44.762;37.698;2023-04-25T04:09:29;10.68;103.30
75782;DHT22;64400;44.762;37.698;2023-04-25T04:12:24;10.72;103.47
75782;DHT22;64400;44.762;37.698;2023-04-25T04:15:13;10.75;103.47
75782;DHT22;64400;44.762;37.698;2023-04-25T04:17:55;10.79;103.98
75782;DHT22;64400;44.762;37.698;2023-04-25T04:20:36;10.75;103.60
75782;DHT22;64400;44.762;37.698;2023-04-25T04:23:19;10.79;103.93
75782;DHT22;64400;44.762;37.698;2023-04-25T04:26:02;10.81;103.95
75782;DHT22;64400;44.762;37.698;2023-04-25T04:28:52;10.81;103.87
75782;DHT22;64400;44.762;37.698;2023-04-25T04:31:41;10.89;104.07
75782;DHT22;64400;44.762;37.698;2023-04-25T04:34:38;10.96;103.59
75782;DHT22;64400;44.762;37.698;2023-04-25T04:37:21;11.04;103.64
75782;DHT22;64400;44.762;37.698;2023-04-25T04:39:51;11.11;103.38
75782;DHT22;64400;44.762;37.698;2023-04-25T04:42:54;11.18;103.68
75782;DHT22;64400;44.762;37.698;2023-04-25T04:45:28;11.20;103.50
75782;DHT22;64400;44.762;37.698;2023-04-25T04:48:36;11.26;103.85
75782;DHT22;64400;44.762;37.698;2023-04-25T04:51:09;11.33;103.38
75782;DHT22;64400;44.762;37.698;2023-04-25T04:53:59;11.39;102.23
75782;DHT22;64400;44.762;37.698;2023-04-25T04:56:57;11.45;102.47
75782;DHT22;64400;44.762;37.698;2023-04-25T04:59:58;11.46;102.46
75782;DHT22;64400;44.762;37.698;2023-04-25T05:03:19;11.49;102.44
75782;DHT22;64400;44.762;37.698;2023-04-25T05:06:34;11.56;103.13
75782;DHT22;64400;44.762;37.698;2023-04-25T05:09:24;11.67;103.31
75782;DHT22;64400;44.762;37.698;2023-04-25T05:12:32;11.69;102.65
75782;DHT22;64400;44.762;37.698;2023-04-25T05:15:44;11.54;102.29
75782;DHT22;64400;44.762;37.698;2023-04-25T05:19:08;11.49;101.48
75782;DHT22;64400;44.762;37.698;2023-04-25T05:22:15;11.57;102.33
75782;DHT22;64400;44.762;37.698;2023-04-25T05:25:17;11.59;102.27
75782;DHT22;64400;44.762;37.698;2023-04-25T05:28:05;11.67;103.34
75782;DHT22;64400;44.762;37.698;2023-04-25T05:31:02;11.79;102.20
75782;DHT22;64400;44.762;37.698;2023-04-25T05:33:49;11.83;100.52
75782;DHT22;64400;44.762;37.698;2023-04-25T05:37:07;11.88;100.83
75782;DHT22;64400;44.762;37.698;2023-04-25T05:40:01;11.88;101.54
75782;DHT22;64400;44.762;37.698;2023-04-25T05:43:06;11.90;102.24
75782;DHT22;64400;44.762;37.698;2023-04-25T05:46:03;11.90;100.86
75782;DHT22;64400;44.762;37.698;2023-04-25T05:49:08;11.76;100.71
75782;DHT22;64400;44.762;37.698;2023-04-25T05:51:57;11.71;102.01
75782;DHT22;64400;44.762;37.698;2023-04-25T05:55:04;11.74;101.99
75782;DHT22;64400;44.762;37.698;2023-04-25T05:57:39;11.72;100.93
75782;DHT22;64400;44.762;37.698;2023-04-25T06:00:29;11.75;102.34
75782;DHT22;64400;44.762;37.698;2023-04-25T06:03:18;11.75;101.86
75782;DHT22;64400;44.762;37.698;2023-04-25T06:05:52;11.81;102.13
75782;DHT22;64400;44.762;37.698;2023-04-25T06:08:41;11.87;101.70
75782;DHT22;64400;44.762;37.698;2023-04-25T06:11:31;11.99;102.02
75782;DHT22;64400;44.762;37.698;2023-04-25T06:14:20;12.10;101.44
75782;DHT22;64400;44.762;37.698;2023-04-25T06:17:09;12.27;100.75
75782;DHT22;64400;44.762;37.698;2023-04-25T06:19:51;12.23;97.99
75782;DHT22;64400;44.762;37.698;2023-04-25T06:22:33;12.23;98.46
75782;DHT22;64400;44.762;37.698;2023-04-25T06:25:15;12.32;97.49
75782;DHT22;64400;44.762;37.698;2023-04-25T06:27:55;12.31;96.34
75782;DHT22;64400;44.762;37.698;2023-04-25T06:30:37;12.33;94.93
75782;DHT22;64400;44.762;37.698;2023-04-25T06:33:20;12.37;93.03
75782;DHT22;64400;44.762;37.698;2023-04-25T06:35:53;12.44;92.39
75782;DHT22;64400;44.762;37.698;2023-04-25T06:38:26;12.57;92.82
75782;DHT22;64400;44.762;37.698;2023-04-25T06:40:57;12.66;92.60
75782;DHT22;64400;44.762;37.698;2023-04-25T06:43:46;12.67;91.22
75782;DHT22;64400;44.762;37.698;2023-04-25T06:46:30;12.73;89.54
75782;DHT22;64400;44.762;37.698;2023-04-25T06:49:29;12.71;90.90
75782;DHT22;64400;44.762;37.698;2023-04-25T06:52:19;12.61;90.72
75782;DHT22;64400;44.762;37.698;2023-04-25T06:54:51;12.57;91.11
75782;DHT22;64400;44.762;37.698;2023-04-25T06:57:56;12.75;94.25
75782;DHT22;64400;44.762;37.698;2023-04-25T07:00:56;12.65;92.81
75782;DHT22;64400;44.762;37.698;2023-04-25T07:03:46;12.59;91.79
75782;DHT22;64400;44.762;37.698;2023-04-25T07:06:19;12.48;92.56
75782;DHT22;64400;44.762;37.698;2023-04-25T07:09:09;12.55;92.49
75782;DHT22;64400;44.762;37.698;2023-04-25T07:12:00;12.65;92.23
75782;DHT22;64400;44.762;37.698;2023-04-25T07:14:49;12.74;91.15
75782;DHT22;64400;44.762;37.698;2023-04-25T07:17:41;12.67;90.97
75782;DHT22;64400;44.762;37.698;2023-04-25T07:20:30;12.56;92.79
75782;DHT22;64400;44.762;37.698;2023-04-25T07:23:06;12.63;93.80
75782;DHT22;64400;44.762;37.698;2023-04-25T07:25:56;12.67;94.40
75782;DHT22;64400;44.762;37.698;2023-04-25T07:29:05;12.80;93.38
75782;DHT22;64400;44.762;37.698;2023-04-25T07:31:53;12.88;93.69
75782;DHT22;64400;44.762;37.698;2023-04-25T07:34:35;12.71;92.24
75782;DHT22;64400;44.762;37.698;2023-04-25T07:37:18;12.53;91.20
75782;DHT22;64400;44.762;37.698;2023-04-25T07:40:19;12.44;92.33
75782;DHT22;64400;44.762;37.698;2023-04-25T07:43:06;12.56;92.25
75782;DHT22;64400;44.762;37.698;2023-04-25T07:45:58;12.72;94.55
75782;DHT22;64400;44.762;37.698;2023-04-25T07:48:30;12.76;92.02
75782;DHT22;64400;44.762;37.698;2023-04-25T07:51:02;12.90;93.59
75782;DHT22;64400;44.762;37.698;2023-04-25T07:53:35;12.88;93.79
75782;DHT22;64400;44.762;37.698;2023-04-25T07:56:26;12.92;93.34
75782;DHT22;64400;44.762;37.698;2023-04-25T07:59:15;12.71;93.04
75782;DHT22;64400;44.762;37.698;2023-04-25T08:02:05;12.50;93.01
75782;DHT22;64400;44.762;37.698;2023-04-25T08:04:53;12.49;92.98
75782;DHT22;64400;44.762;37.698;2023-04-25T08:07:47;12.61;94.18
75782;DHT22;64400;44.762;37.698;2023-04-25T08:10:36;12.44;93.75
75782;DHT22;64400;44.762;37.698;2023-04-25T08:13:18;12.41;94.46
75782;DHT22;64400;44.762;37.698;2023-04-25T08:16:07;12.57;93.23
75782;DHT22;64400;44.762;37.698;2023-04-25T08:18:34;12.51;92.18
75782;DHT22;64400;44.762;37.698;2023-04-25T08:21:16;12.53;91.15
75782;DHT22;64400;44.762;37.698;2023-04-25T08:24:01;12.62;92.26
75782;DHT22;64400;44.762;37.698;2023-04-25T08:26:35;12.63;90.67
75782;DHT22;64400;44.762;37.698;2023-04-25T08:29:10;12.67;92.26
75782;DHT22;64400;44.762;37.698;2023-04-25T08:31:41;12.70;91.56
75782;DHT22;64400;44.762;37.698;2023-04-25T08:34:31;12.74;89.43
75782;DHT22;64400;44.762;37.698;2023-04-25T08:37:02;12.78;90.97
75782;DHT22;64400;44.762;37.698;2023-04-25T08:39:57;12.92;93.08
75782;DHT22;64400;44.762;37.698;2023-04-25T08:42:53;12.77;92.14
75782;DHT22;64400;44.762;37.698;2023-04-25T08:45:43;12.53;92.53
75782;DHT22;64400;44.762;37.698;2023-04-25T08:48:40;12.45;91.89
75782;DHT22;64400;44.762;37.698;2023-04-25T08:51:32;12.64;92.34
75782;DHT22;64400;44.762;37.698;2023-04-25T08:54:23;13.07;91.12
75782;DHT22;64400;44.762;37.698;2023-04-25T08:57:05;13.62;89.17
75782;DHT22;64400;44.762;37.698;2023-04-25T08:59:57;13.45;88.38
75782;DHT22;64400;44.762;37.698;2023-04-25T09:02:47;13.40;91.11
75782;DHT22;64400;44.762;37.698;2023-04-25T09:05:18;13.32;88.89
75782;DHT22;64400;44.762;37.698;2023-04-25T09:08:07;13.18;88.70
75782;DHT22;64400;44.762;37.698;2023-04-25T09:10:49;13.14;87.62
75782;DHT22;64400;44.762;37.698;2023-04-25T09:13:31;13.37;87.67
75782;DHT22;64400;44.762;37.698;2023-04-25T09:16:25;13.44;85.49
75782;DHT22;64400;44.762;37.698;2023-04-25T09:22:38;13.96;83.72
75782;DHT22;64400;44.762;37.698;2023-04-25T09:25:10;13.96;81.21
75782;DHT22;64400;44.762;37.698;2023-04-25T09:28:03;13.67;84.42
75782;DHT22;64400;44.762;37.698;2023-04-25T09:30:34;13.93;84.97
75782;DHT22;64400;44.762;37.698;2023-04-25T09:33:32;13.92;83.97
75782;DHT22;64400;44.762;37.698;2023-04-25T09:36:26;14.13;82.51
75782;DHT22;64400;44.762;37.698;2023-04-25T09:39:02;14.22;81.98
75782;DHT22;64400;44.762;37.698;2023-04-25T09:41:37;13.85;82.78
75782;DHT22;64400;44.762;37.698;2023-04-25T09:44:27;13.92;83.63
75782;DHT22;64400;44.762;37.698;2023-04-25T09:46:57;13.56;84.52
75782;DHT22;64400;44.762;37.698;2023-04-25T09:49:47;13.62;83.73
75782;DHT22;64400;44.762;37.698;2023-04-25T09:52:22;13.67;82.26
75782;DHT22;64400;44.762;37.698;2023-04-25T09:55:17;13.77;83.61
75782;DHT22;64400;44.762;37.698;2023-04-25T09:57:50;13.83;82.84
75782;DHT22;64400;44.762;37.698;2023-04-25T10:00:23;13.58;85.00
75782;DHT22;64400;44.762;37.698;2023-04-25T10:07:33;14.44;83.14
75782;DHT22;64400;44.762;37.698;2023-04-25T10:10:26;14.91;80.09
75782;DHT22;64400;44.762;37.698;2023-04-25T10:13:20;14.55;82.19
75782;DHT22;64400;44.762;37.698;2023-04-25T10:15:49;15.03;79.79
75782;DHT22;64400;44.762;37.698;2023-04-25T10:18:18;14.78;82.06
75782;DHT22;64400;44.762;37.698;2023-04-25T10:20:49;14.27;80.82
75782;DHT22;64400;44.762;37.698;2023-04-25T10:23:20;13.96;80.30
75782;DHT22;64400;44.762;37.698;2023-04-25T10:25:52;14.13;81.33
75782;DHT22;64400;44.762;37.698;2023-04-25T10:29:07;13.75;82.05
75782;DHT22;64400;44.762;37.698;2023-04-25T10:31:47;13.60;84.55
75782;DHT22;64400;44.762;37.698;2023-04-25T10:41:53;13.75;84.99
75782;DHT22;64400;44.762;37.698;2023-04-25T10:45:07;13.85;81.23
75782;DHT22;64400;44.762;37.698;2023-04-25T10:47:43;14.05;82.82
75782;DHT22;64400;44.762;37.698;2023-04-25T10:50:18;14.22;80.41
75782;DHT22;64400;44.762;37.698;2023-04-25T10:53:33;13.93;81.91
75782;DHT22;64400;44.762;37.698;2023-04-25T10:56:19;13.88;83.32
75782;DHT22;64400;44.762;37.698;2023-04-25T10:58:50;13.80;81.43
75782;DHT22;64400;44.762;37.698;2023-04-25T11:01:51;13.73;83.30
75782;DHT22;64400;44.762;37.698;2023-04-25T11:10:14;14.22;81.56
75782;DHT22;64400;44.762;37.698;2023-04-25T11:13:03;14.66;81.80
75782;DHT22;64400;44.762;37.698;2023-04-25T11:15:53;14.03;79.91
75782;DHT22;64400;44.762;37.698;2023-04-25T11:18:34;14.05;79.43
75782;DHT22;64400;44.762;37.698;2023-04-25T11:21:16;13.95;80.31
75782;DHT22;64400;44.762;37.698;2023-04-25T11:23:59;14.14;80.78
75782;DHT22;64400;44.762;37.698;2023-04-25T11:31:29;13.63;81.60
75782;DHT22;64400;44.762;37.698;2023-04-25T11:34:18;14.14;82.13
75782;DHT22;64400;44.762;37.698;2023-04-25T11:46:40;14.03;79.96
75782;DHT22;64400;44.762;37.698;2023-04-25T11:49:09;14.14;78.27
75782;DHT22;64400;44.762;37.698;2023-04-25T11:53:44;14.25;79.49
75782;DHT22;64400;44.762;37.698;2023-04-25T11:56:17;13.78;81.23
75782;DHT22;64400;44.762;37.698;2023-04-25T12:07:10;13.70;80.59
75782;DHT22;64400;44.762;37.698;2023-04-25T12:09:58;13.98;81.23
75782;DHT22;64400;44.762;37.698;2023-04-25T12:14:34;14.14;80.48
75782;DHT22;64400;44.762;37.698;2023-04-25T12:17:16;14.26;79.70
75782;DHT22;64400;44.762;37.698;2023-04-25T12:19:58;14.30;78.75
75782;DHT22;64400;44.762;37.698;2023-04-25T12:22:45;14.25;79.43
75782;DHT22;64400;44.762;37.698;2023-04-25T12:25:41;14.00;77.99
75782;DHT22;64400;44.762;37.698;2023-04-25T12:28:24;14.09;78.73
75782;DHT22;64400;44.762;37.698;2023-04-25T12:31:00;13.82;78.05
75782;DHT22;64400;44.762;37.698;2023-04-25T12:37:51;14.00;79.53
75782;DHT22;64400;44.762;37.698;2023-04-25T12:42:51;14.03;81.36
75782;DHT22;64400;44.762;37.698;2023-04-25T12:45:33;14.22;80.85
75782;DHT22;64400;44.762;37.698;2023-04-25T12:48:08;14.11;78.27
75782;DHT22;64400;44.762;37.698;2023-04-25T12:50:39;13.82;77.66
75782;DHT22;64400;44.762;37.698;2023-04-25T12:53:10;14.09;79.17
75782;DHT22;64400;44.762;37.698;2023-04-25T12:55:40;14.13;78.64
75782;DHT22;64400;44.762;37.698;2023-04-25T12:59:19;14.15;78.11
75782;DHT22;64400;44.762;37.698;2023-04-25T13:01:50;14.05;77.87
75782;DHT22;64400;44.762;37.698;2023-04-25T13:04:39;14.08;78.19
75782;DHT22;64400;44.762;37.698;2023-04-25T13:21:38;13.84;79.46
75782;DHT22;64400;44.762;37.698;2023-04-25T13:27:47;13.69;79.16
75782;DHT22;64400;44.762;37.698;2023-04-25T13:32:21;13.27;80.27
75782;DHT22;64400;44.762;37.698;2023-04-25T13:35:04;13.36;80.70
75782;DHT22;64400;44.762;37.698;2023-04-25T13:37:46;13.43;83.17
75782;DHT22;64400;44.762;37.698;2023-04-25T13:40:13;13.33;81.86
75782;DHT22;64400;44.762;37.698;2023-04-25T13:43:05;13.27;80.94
75782;DHT22;64400;44.762;37.698;2023-04-25T13:45:33;13.19;81.84
75782;DHT22;64400;44.762;37.698;2023-04-25T13:47:59;13.21;81.28
75782;DHT22;64400;44.762;37.698;2023-04-25T13:50:30;13.38;80.88
75782;DHT22;64400;44.762;37.698;2023-04-25T13:53:12;13.46;82.13
75782;DHT22;64400;44.762;37.698;2023-04-25T13:55:53;13.37;84.03
75782;DHT22;64400;44.762;37.698;2023-04-25T13:58:35;13.33;83.45
75782;DHT22;64400;44.762;37.698;2023-04-25T14:05:27;13.25;82.51
75782;DHT22;64400;44.762;37.698;2023-04-25T14:08:01;13.36;81.74
75782;DHT22;64400;44.762;37.698;2023-04-25T14:11:40;13.41;82.36
75782;DHT22;64400;44.762;37.698;2023-04-25T14:14:19;13.70;81.39
75782;DHT22;64400;44.762;37.698;2023-04-25T14:22:05;13.67;80.91
75782;DHT22;64400;44.762;37.698;2023-04-25T14:24:39;13.49;83.42
75782;DHT22;64400;44.762;37.698;2023-04-25T14:27:53;13.43;85.21
75782;DHT22;64400;44.762;37.698;2023-04-25T14:32:25;13.52;85.35
75782;DHT22;64400;44.762;37.698;2023-04-25T14:34:55;13.51;85.29
75782;DHT22;64400;44.762;37.698;2023-04-25T14:37:25;13.38;85.47
75782;DHT22;64400;44.762;37.698;2023-04-25T14:40:14;13.50;85.97
75782;DHT22;64400;44.762;37.698;2023-04-25T14:53:04;13.58;86.01
75782;DHT22;64400;44.762;37.698;2023-04-25T14:55:34;13.46;85.90
75782;DHT22;64400;44.762;37.698;2023-04-25T14:58:52;13.20;85.73
75782;DHT22;64400;44.762;37.698;2023-04-25T15:02:50;13.17;86.09
75782;DHT22;64400;44.762;37.698;2023-04-25T15:05:20;13.09;86.02
75782;DHT22;64400;44.762;37.698;2023-04-25T15:08:09;13.04;85.98
75782;DHT22;64400;44.762;37.698;2023-04-25T15:10:40;13.01;87.17
75782;DHT22;64400;44.762;37.698;2023-04-25T15:13:10;12.95;86.35
75782;DHT22;64400;44.762;37.698;2023-04-25T15:15:40;12.91;87.28
75782;DHT22;64400;44.762;37.698;2023-04-25T15:18:11;12.80;87.53
75782;DHT22;64400;44.762;37.698;2023-04-25T15:25:08;12.77;88.54
75782;DHT22;64400;44.762;37.698;2023-04-25T15:27:38;12.71;89.02
75782;DHT22;64400;44.762;37.698;2023-04-25T15:30:25;12.64;88.88
75782;DHT22;64400;44.762;37.698;2023-04-25T15:32:56;12.59;88.97
75782;DHT22;64400;44.762;37.698;2023-04-25T15:36:09;12.55;89.17
75782;DHT22;64400;44.762;37.698;2023-04-25T15:38:58;12.48;89.95
75782;DHT22;64400;44.762;37.698;2023-04-25T15:47:55;12.21;91.52
75782;DHT22;64400;44.762;37.698;2023-04-25T16:00:31;11.98;92.07
75782;DHT22;64400;44.762;37.698;2023-04-25T16:03:24;11.91;92.66
75782;DHT22;64400;44.762;37.698;2023-04-25T16:06:13;11.88;92.86
75782;DHT22;64400;44.762;37.698;2023-04-25T16:09:03;11.85;92.95
75782;DHT22;64400;44.762;37.698;2023-04-25T16:11:30;11.77;93.66
75782;DHT22;64400;44.762;37.698;2023-04-25T16:13:56;11.73;93.95
75782;DHT22;64400;44.762;37.698;2023-04-25T16:16:23;11.70;94.05
75782;DHT22;64400;44.762;37.698;2023-04-25T16:18:49;11.66;94.45
75782;DHT22;64400;44.762;37.698;2023-04-25T16:21:31;11.61;94.74
75782;DHT22;64400;44.762;37.698;2023-04-25T16:24:13;11.56;95.27
75782;DHT22;64400;44.762;37.698;2023-04-25T16:26:54;11.56;95.46
75782;DHT22;64400;44.762;37.698;2023-04-25T16:29:36;11.51;95.86
75782;DHT22;64400;44.762;37.698;2023-04-25T16:41:29;11.37;96.84
75782;DHT22;64400;44.762;37.698;2023-04-25T16:46:01;11.29;97.59
75782;DHT22;64400;44.762;37.698;2023-04-25T16:48:35;11.25;98.00
75782;DHT22;64400;44.762;37.698;2023-04-25T16:51:17;11.24;98.16
75782;DHT22;64400;44.762;37.698;2023-04-25T16:53:48;11.20;98.52
75782;DHT22;64400;44.762;37.698;2023-04-25T16:56:19;11.17;98.80
75782;DHT22;64400;44.762;37.698;2023-04-25T16:59:08;11.15;99.13
75782;DHT22;64400;44.762;37.698;2023-04-25T17:01:57;11.13;99.48
75782;DHT22;64400;44.762;37.698;2023-04-25T17:04:46;11.12;99.65
75782;DHT22;64400;44.762;37.698;2023-04-25T17:07:17;11.11;99.76
75782;DHT22;64400;44.762;37.698;2023-04-25T17:09:51;11.05;99.96
75782;DHT22;64400;44.762;37.698;2023-04-25T17:12:40;11.01;100.19
75782;DHT22;64400;44.762;37.698;2023-04-25T17:15:22;10.98;100.35
75782;DHT22;64400;44.762;37.698;2023-04-25T17:18:12;10.96;100.11
75782;DHT22;64400;44.762;37.698;2023-04-25T17:20:39;10.95;100.03
75782;DHT22;64400;44.762;37.698;2023-04-25T17:23:28;10.97;99.99
75782;DHT22;64400;44.762;37.698;2023-04-25T17:26:19;10.96;99.91
75782;DHT22;64400;44.762;37.698;2023-04-25T17:29:08;10.95;99.95
75782;DHT22;64400;44.762;37.698;2023-04-25T17:31:36;10.96;99.93
75782;DHT22;64400;44.762;37.698;2023-04-25T17:34:03;10.93;99.90
75782;DHT22;64400;44.762;37.698;2023-04-25T17:36:31;10.92;99.83
75782;DHT22;64400;44.762;37.698;2023-04-25T17:39:03;10.92;99.90
75782;DHT22;64400;44.762;37.698;2023-04-25T17:41:48;10.89;100.14
75782;DHT22;64400;44.762;37.698;2023-04-25T17:44:37;10.87;100.21
75782;DHT22;64400;44.762;37.698;2023-04-25T17:47:21;10.85;100.46
75782;DHT22;64400;44.762;37.698;2023-04-25T17:50:10;10.89;100.67
75782;DHT22;64400;44.762;37.698;2023-04-25T17:53:00;10.96;100.94
75782;DHT22;64400;44.762;37.698;2023-04-25T17:55:38;11.01;100.57
75782;DHT22;64400;44.762;37.698;2023-04-25T17:58:30;11.07;100.62
75782;DHT22;64400;44.762;37.698;2023-04-25T18:01:19;11.09;100.25
75782;DHT22;64400;44.762;37.698;2023-04-25T18:04:09;11.12;100.18
75782;DHT22;64400;44.762;37.698;2023-04-25T18:06:51;11.08;100.25
75782;DHT22;64400;44.762;37.698;2023-04-25T18:09:40;11.09;100.16
75782;DHT22;64400;44.762;37.698;2023-04-25T18:12:11;11.09;100.14
75782;DHT22;64400;44.762;37.698;2023-04-25T18:15:03;11.07;99.80
75782;DHT22;64400;44.762;37.698;2023-04-25T18:17:48;11.09;99.69
75782;DHT22;64400;44.762;37.698;2023-04-25T18:20:31;11.09;99.35
75782;DHT22;64400;44.762;37.698;2023-04-25T18:23:13;11.09;99.40
75782;DHT22;64400;44.762;37.698;2023-04-25T18:25:41;11.09;99.28
75782;DHT22;64400;44.762;37.698;2023-04-25T18:28:20;11.07;99.34
75782;DHT22;64400;44.762;37.698;2023-04-25T18:31:10;11.02;99.48
75782;DHT22;64400;44.762;37.698;2023-04-25T18:33:42;10.98;99.81
75782;DHT22;64400;44.762;37.698;2023-04-25T18:36:31;11.00;99.50
75782;DHT22;64400;44.762;37.698;2023-04-25T18:39:13;11.01;99.55
75782;DHT22;64400;44.762;37.698;2023-04-25T18:42:03;11.03;99.19
75782;DHT22;64400;44.762;37.698;2023-04-25T18:44:45;11.05;99.29
75782;DHT22;64400;44.762;37.698;2023-04-25T18:47:28;11.12;98.71
75782;DHT22;64400;44.762;37.698;2023-04-25T18:50:10;11.14;98.61
75782;DHT22;64400;44.762;37.698;2023-04-25T18:52:52;11.18;98.44
75782;DHT22;64400;44.762;37.698;2023-04-25T18:55:34;11.20;98.19
75782;DHT22;64400;44.762;37.698;2023-04-25T18:58:02;11.15;98.39
75782;DHT22;64400;44.762;37.698;2023-04-25T19:00:51;11.13;98.97